Time;durP1;ratioP1;P1;durP2;ratioP2;P2;SDS_P1;SDS_P2;PMS_P1;PMS_P2;Temp;Humidity;BMP_temperature;BMP_pressure;BME280_temperature;BME280_humidity;BME280_pressure;Samples;Min_cycle;Max_cycle;Signal;HPM_P1;HPM_P2
2023/03/15 00:01:48;;;;;;;0.85;0.85;;;;;;;2.19;58.80;98659.25;4992572;28;20073;-80
2023/03/15 00:04:15;;;;;;;0.90;0.90;;;;;;;2.16;58.96;98634.66;4992775;28;20084;-80
2023/03/15 00:06:42;;;;;;;0.80;0.80;;;;;;;2.06;59.28;98644.88;4992519;28;20054;-80
2023/03/15 00:09:10;;;;;;;0.90;0.90;;;;;;;1.99;59.71;98641.34;4987936;28;20149;-79
2023/03/15 00:11:37;;;;;;;0.90;0.90;;;;;;;1.98;59.87;98644.22;4971406;28;20057;-79
2023/03/15 00:14:04;;;;;;;0.90;0.90;;;;;;;2.04;59.76;98638.91;4972636;28;20061;-79
2023/03/15 00:16:32;;;;;;;0.90;0.90;;;;;;;1.99;60.04;98645.84;4973113;28;20050;-79
2023/03/15 00:18:59;;;;;;;0.90;0.90;;;;;;;2.00;60.16;98639.50;4992561;28;20096;-80
2023/03/15 00:21:28;;;;;;;0.90;0.90;;;;;;;1.95;60.27;98645.44;4993080;28;20097;-81
2023/03/15 00:23:55;;;;;;;0.90;0.90;;;;;;;1.92;60.79;98651.13;4997704;28;20050;-80
2023/03/15 00:26:22;;;;;;;0.80;0.80;;;;;;;2.03;60.55;98642.59;4999463;28;20050;-81
2023/03/15 00:28:50;;;;;;;0.80;0.80;;;;;;;2.11;60.44;98636.28;4992407;28;20480;-80
2023/03/15 00:31:19;;;;;;;0.90;0.90;;;;;;;2.06;60.56;98642.22;4990733;28;20046;-80
2023/03/15 00:33:47;;;;;;;0.80;0.80;;;;;;;2.03;60.85;98637.28;4990273;28;20417;-80
2023/03/15 00:36:15;;;;;;;0.90;0.90;;;;;;;2.03;60.91;98639.13;4992066;28;20046;-80
2023/03/15 00:38:45;;;;;;;0.80;0.80;;;;;;;2.00;61.10;98648.34;4991759;28;20042;-80
2023/03/15 00:41:14;;;;;;;0.80;0.80;;;;;;;2.00;61.09;98640.34;4992093;28;20136;-81
2023/03/15 00:43:42;;;;;;;0.90;0.90;;;;;;;2.03;61.23;98641.78;4990338;28;20509;-80
2023/03/15 00:46:09;;;;;;;0.80;0.80;;;;;;;2.05;61.34;98634.41;4990833;28;20141;-80
2023/03/15 00:48:37;;;;;;;0.90;0.90;;;;;;;2.09;61.21;98639.13;4991445;28;20081;-80
2023/03/15 00:51:13;;;;;;;0.90;0.90;;;;;;;2.07;61.16;98641.16;4990424;28;20058;-80
2023/03/15 00:53:42;;;;;;;0.70;0.70;;;;;;;2.06;61.42;98642.22;4975345;28;20117;-80
2023/03/15 00:56:12;;;;;;;0.88;0.88;;;;;;;2.09;61.44;98641.81;4972147;28;20051;-80
2023/03/15 00:58:40;;;;;;;0.70;0.70;;;;;;;2.06;61.44;98650.19;4972027;28;20050;-79
2023/03/15 01:01:09;;;;;;;0.90;0.90;;;;;;;2.07;61.65;98633.19;4973042;28;20057;-81
2023/03/15 01:03:36;;;;;;;0.90;0.90;;;;;;;2.02;61.60;98635.63;4972138;28;20612;-80
2023/03/15 01:06:15;;;;;;;0.80;0.80;;;;;;;2.00;62.02;98639.50;4971094;28;20050;-80
2023/03/15 01:08:43;;;;;;;0.80;0.80;;;;;;;1.98;61.94;98637.06;4972008;28;20078;-79
2023/03/15 01:11:16;;;;;;;0.75;0.75;;;;;;;1.91;62.45;98636.19;4990307;28;20077;-81
2023/03/15 01:13:43;;;;;;;0.82;0.82;;;;;;;1.87;62.72;98649.06;4989559;28;20749;-80
2023/03/15 01:16:12;;;;;;;0.90;0.90;;;;;;;1.84;62.78;98638.00;4991818;28;20077;-80
2023/03/15 01:18:40;;;;;;;0.90;0.90;;;;;;;1.87;62.81;98653.56;4991059;28;20092;-80
2023/03/15 01:21:12;;;;;;;0.80;0.80;;;;;;;1.79;63.05;98629.78;4990211;28;20061;-80
2023/03/15 01:23:40;;;;;;;0.90;0.90;;;;;;;1.84;63.26;98641.47;4989902;28;20057;-80
2023/03/15 01:26:10;;;;;;;0.90;0.90;;;;;;;1.90;63.04;98637.19;4990429;28;20108;-80
2023/03/15 01:28:40;;;;;;;0.80;0.80;;;;;;;1.90;63.33;98645.19;4989921;28;20054;-80
2023/03/15 01:31:17;;;;;;;0.90;0.90;;;;;;;1.95;63.30;98624.16;4973851;28;20046;-80
2023/03/15 01:33:44;;;;;;;0.90;0.90;;;;;;;1.94;63.29;98628.63;4990932;28;20046;-80
2023/03/15 01:36:13;;;;;;;0.90;0.90;;;;;;;1.93;63.32;98621.69;4990086;28;20061;-80
2023/03/15 01:38:41;;;;;;;0.90;0.90;;;;;;;1.98;63.66;98625.59;4989938;28;20093;-80
2023/03/15 01:41:11;;;;;;;0.77;0.77;;;;;;;2.04;63.52;98644.25;4989876;28;20062;-80
2023/03/15 01:43:38;;;;;;;0.80;0.80;;;;;;;2.09;63.31;98639.13;4989556;28;20505;-80
2023/03/15 01:46:16;;;;;;;0.80;0.80;;;;;;;2.14;63.45;98643.88;4988693;28;20092;-80
2023/03/15 01:48:48;;;;;;;0.80;0.80;;;;;;;2.16;63.26;98636.50;4972566;28;20050;-80
2023/03/15 01:51:38;;;;;;;0.88;0.88;;;;;;;2.12;63.50;98630.75;4972601;28;20460;-81
2023/03/15 01:54:09;;;;;;;0.80;0.80;;;;;;;2.09;63.55;98641.81;4969425;28;20053;-80
2023/03/15 01:56:40;;;;;;;0.90;0.90;;;;;;;2.15;63.57;98640.19;4937148;28;20073;-80
2023/03/15 01:59:14;;;;;;;0.90;0.90;;;;;;;2.10;63.97;98646.13;4953193;28;20057;-80
2023/03/15 02:01:44;;;;;;;0.80;0.80;;;;;;;2.17;63.68;98638.97;4953029;28;20062;-79
2023/03/15 02:04:17;;;;;;;0.80;0.80;;;;;;;2.16;63.74;98642.66;4969137;28;20448;-79
2023/03/15 02:06:46;;;;;;;0.80;0.80;;;;;;;2.16;63.79;98647.97;4952911;28;20085;-80
2023/03/15 02:09:15;;;;;;;0.80;0.80;;;;;;;2.17;63.87;98648.78;4955715;28;20399;-80
2023/03/15 02:11:44;;;;;;;0.80;0.80;;;;;;;2.19;63.98;98636.09;4972165;28;20605;-80
2023/03/15 02:14:13;;;;;;;0.80;0.80;;;;;;;2.19;63.77;98644.09;4988342;28;20057;-80
2023/03/15 02:16:43;;;;;;;0.90;0.90;;;;;;;2.20;63.93;98642.25;4959759;28;20053;-79
2023/03/15 02:19:39;;;;;;;0.90;0.90;;;;;;;2.21;63.83;98655.38;4989936;28;20093;-79
2023/03/15 02:22:54;;;;;;;0.90;0.90;;;;;;;2.19;64.14;98638.78;4974139;28;20046;-80
2023/03/15 02:25:54;;;;;;;0.90;0.90;;;;;;;2.15;64.18;98646.34;4955200;28;20055;-79
2023/03/15 02:28:21;;;;;;;0.80;0.80;;;;;;;2.14;64.13;98655.34;4969064;28;20536;-79
2023/03/15 02:30:48;;;;;;;0.80;0.80;;;;;;;2.11;64.30;98653.06;4968702;28;20062;-79
2023/03/15 02:33:28;;;;;;;0.85;0.85;;;;;;;2.12;64.36;98654.72;4968901;28;20502;-80
2023/03/15 02:36:00;;;;;;;0.88;0.88;;;;;;;2.11;64.23;98647.75;4953088;28;20522;-80
2023/03/15 02:38:27;;;;;;;0.85;0.85;;;;;;;2.03;64.53;98652.44;4972215;28;20082;-80
2023/03/15 02:40:54;;;;;;;0.90;0.90;;;;;;;1.95;64.90;98646.25;4972225;28;20046;-80
2023/03/15 02:43:24;;;;;;;0.80;0.80;;;;;;;1.93;65.16;98642.16;4972309;28;20051;-80
2023/03/15 02:45:52;;;;;;;0.90;0.90;;;;;;;1.87;65.27;98629.63;4940204;28;20454;-80
2023/03/15 02:48:20;;;;;;;0.90;0.90;;;;;;;1.86;65.42;98644.78;4972229;28;20557;-79
2023/03/15 02:50:47;;;;;;;0.90;0.90;;;;;;;1.83;65.59;98655.00;4955979;28;20053;-79
2023/03/15 02:53:14;;;;;;;0.90;0.90;;;;;;;1.84;65.72;98649.47;4956052;28;20047;-80
2023/03/15 02:55:41;;;;;;;0.88;0.88;;;;;;;1.84;65.82;98653.97;4971740;28;20137;-79
2023/03/15 02:58:08;;;;;;;0.80;0.80;;;;;;;1.75;65.79;98658.66;4971807;28;20062;-81
2023/03/15 03:00:35;;;;;;;0.90;0.90;;;;;;;1.65;66.32;98656.34;4971679;28;20137;-80
2023/03/15 03:03:02;;;;;;;0.90;0.90;;;;;;;1.62;66.51;98654.06;4985707;28;20112;-80
2023/03/15 03:05:31;;;;;;;1.00;1.00;;;;;;;1.57;66.59;98653.84;4989796;28;20104;-80
2023/03/15 03:07:58;;;;;;;0.85;0.85;;;;;;;1.58;66.83;98658.13;4972865;28;20061;-80
2023/03/15 03:10:25;;;;;;;0.70;0.70;;;;;;;1.61;66.90;98662.22;4985111;28;20050;-80
2023/03/15 03:12:55;;;;;;;0.70;0.70;;;;;;;1.61;66.63;98655.06;4972689;28;20066;-80
2023/03/15 03:15:29;;;;;;;0.90;0.90;;;;;;;1.56;66.82;98656.69;4972763;28;20074;-80
2023/03/15 03:17:56;;;;;;;0.85;0.85;;;;;;;1.54;66.97;98656.03;4973095;28;20096;-80
2023/03/15 03:20:24;;;;;;;0.80;0.80;;;;;;;1.47;67.30;98666.66;4974222;28;20051;-80
2023/03/15 03:22:54;;;;;;;0.85;0.85;;;;;;;1.47;67.14;98648.84;4973943;28;20051;-81
2023/03/15 03:25:25;;;;;;;0.90;0.90;;;;;;;1.47;67.36;98664.00;4974166;28;20074;-80
2023/03/15 03:27:55;;;;;;;0.90;0.90;;;;;;;1.44;67.54;98653.72;4971357;28;20556;-80
2023/03/15 03:30:26;;;;;;;0.90;0.90;;;;;;;1.48;67.35;98652.34;4971261;28;20081;-81
2023/03/15 03:32:53;;;;;;;0.90;0.90;;;;;;;1.47;67.21;98661.34;4955521;28;20063;-80
2023/03/15 03:35:20;;;;;;;0.80;0.80;;;;;;;1.41;67.49;98665.56;4957543;28;20635;-80
2023/03/15 03:37:48;;;;;;;0.90;0.90;;;;;;;1.36;67.53;98664.50;4979745;28;20063;-80
2023/03/15 03:40:19;;;;;;;0.80;0.80;;;;;;;1.41;67.45;98672.72;4983862;28;20069;-81
2023/03/15 03:42:46;;;;;;;0.80;0.80;;;;;;;1.40;67.50;98663.94;4977704;28;20058;-81
2023/03/15 03:45:16;;;;;;;0.90;0.90;;;;;;;1.45;67.25;98677.47;4974758;28;20049;-80
2023/03/15 03:47:46;;;;;;;0.90;0.90;;;;;;;1.46;67.35;98655.19;4973354;28;20050;-80
2023/03/15 03:50:13;;;;;;;0.85;0.85;;;;;;;1.44;67.18;98675.84;4974258;28;20533;-80
2023/03/15 03:52:42;;;;;;;0.90;0.90;;;;;;;1.43;67.36;98673.38;4973955;28;20054;-80
2023/03/15 03:55:15;;;;;;;;;;;;;;;1.40;67.43;98668.44;4974494;28;20046;-80
2023/03/15 03:57:43;;;;;;;0.85;0.85;;;;;;;1.36;67.32;98680.47;4973371;28;19931;-81
2023/03/15 04:00:17;;;;;;;1.00;1.00;;;;;;;1.33;67.90;98686.19;4991322;28;20061;-81
2023/03/15 04:02:45;;;;;;;0.90;0.90;;;;;;;1.38;67.43;98670.47;4974983;28;20668;-81
2023/03/15 04:05:15;;;;;;;0.90;0.90;;;;;;;1.45;67.39;98676.66;4992379;28;20417;-82
2023/03/15 04:07:43;;;;;;;1.00;1.00;;;;;;;1.48;67.15;98678.94;4976353;28;20050;-82
2023/03/15 04:10:13;;;;;;;0.90;0.90;;;;;;;1.52;67.03;98682.84;4989592;28;20102;-81
2023/03/15 04:12:44;;;;;;;0.73;0.73;;;;;;;1.49;66.95;98680.56;4971834;28;20046;-82
2023/03/15 04:15:14;;;;;;;0.90;0.90;;;;;;;1.49;67.07;98667.25;4972393;28;20081;-80
2023/03/15 04:17:41;;;;;;;0.70;0.70;;;;;;;1.53;66.99;98673.84;4970899;28;20053;-82
2023/03/15 04:20:11;;;;;;;0.80;0.80;;;;;;;1.53;67.13;98679.16;4972985;28;20422;-81
2023/03/15 04:22:48;;;;;;;0.90;0.90;;;;;;;1.53;67.12;98681.81;4971428;28;20236;-80
2023/03/15 04:25:31;;;;;;;0.80;0.80;;;;;;;1.55;66.94;98693.09;4971163;28;20143;-81
2023/03/15 04:28:18;;;;;;;0.80;0.80;;;;;;;1.49;67.13;98675.25;4972359;28;20058;-81
2023/03/15 04:30:57;;;;;;;0.80;0.80;;;;;;;1.52;66.95;98693.50;4971216;28;20046;-81
2023/03/15 04:34:04;;;;;;;0.80;0.80;;;;;;;1.50;66.92;98684.88;4970697;28;20157;-81
2023/03/15 04:36:53;;;;;;;0.95;0.95;;;;;;;1.50;66.85;98695.53;4974777;28;20050;-81
2023/03/15 04:39:46;;;;;;;;;;;;;;;1.56;66.50;98693.91;4971645;28;20062;-82
2023/03/15 04:42:24;;;;;;;0.82;0.82;;;;;;;1.55;66.34;98673.66;4970393;28;19932;-82
2023/03/15 04:44:54;;;;;;;0.80;0.80;;;;;;;1.60;66.05;98713.81;4971837;28;20141;-81
2023/03/15 04:47:40;;;;;;;0.90;0.90;;;;;;;1.58;66.19;98670.59;4970740;28;20047;-81
2023/03/15 04:50:25;;;;;;;0.90;0.90;;;;;;;1.57;66.29;98696.41;4969987;28;20518;-81
2023/03/15 04:53:03;;;;;;;0.90;0.90;;;;;;;1.57;66.08;98709.69;4982882;28;20059;-80
2023/03/15 04:55:45;;;;;;;0.82;0.82;;;;;;;1.56;66.01;98710.69;4991194;28;20061;-81
2023/03/15 04:58:38;;;;;;;0.90;0.90;;;;;;;1.49;66.10;98704.50;4989584;28;20046;-80
2023/03/15 05:01:35;;;;;;;0.90;0.90;;;;;;;1.51;66.16;98707.78;4991401;28;20545;-81
2023/03/15 05:04:20;;;;;;;0.80;0.80;;;;;;;1.59;65.67;98702.31;4947457;28;20416;-80
2023/03/15 05:07:22;;;;;;;0.85;0.85;;;;;;;1.65;65.20;98698.91;4989703;28;20046;-81
2023/03/15 05:10:10;;;;;;;0.77;0.77;;;;;;;1.60;65.49;98708.47;4990479;28;20058;-81
2023/03/15 05:12:56;;;;;;;0.70;0.70;;;;;;;1.54;65.56;98680.78;4962223;28;20136;-83
2023/03/15 05:15:46;;;;;;;0.82;0.82;;;;;;;1.59;65.58;98731.56;4983261;28;20401;-82
2023/03/15 05:18:33;;;;;;;0.80;0.80;;;;;;;1.59;65.32;98731.56;4990357;28;20050;-81
2023/03/15 05:21:26;;;;;;;0.90;0.90;;;;;;;1.64;65.35;98729.16;4989207;28;20543;-83
2023/03/15 05:24:04;;;;;;;0.98;0.98;;;;;;;1.65;65.37;98727.34;4991103;28;20046;-80
2023/03/15 05:26:45;;;;;;;0.90;0.90;;;;;;;1.73;64.89;98732.50;4990532;28;20571;-81
2023/03/15 05:29:41;;;;;;;;;;;;;;;1.80;64.69;98748.50;4989260;28;20057;-81
2023/03/15 05:32:43;;;;;;;1.00;1.00;;;;;;;1.78;64.35;98740.72;5007161;28;19926;-82
2023/03/15 05:35:11;;;;;;;0.90;0.90;;;;;;;1.91;63.96;98735.50;5007810;28;20132;-82
2023/03/15 05:37:44;;;;;;;0.90;0.90;;;;;;;2.03;63.86;98754.41;4991432;28;20056;-82
2023/03/15 05:40:36;;;;;;;0.90;0.90;;;;;;;2.06;63.79;98767.31;5007713;28;20054;-82
2023/03/15 05:43:12;;;;;;;0.98;0.98;;;;;;;2.24;63.37;98766.00;4991432;28;20153;-81
2023/03/15 05:46:05;;;;;;;0.90;0.90;;;;;;;2.36;62.94;98756.44;5002069;28;20528;-81
2023/03/15 05:49:03;;;;;;;0.80;0.80;;;;;;;2.42;62.59;98757.47;4589488;29;10000078;-80
2023/03/15 05:51:52;;;;;;;0.90;0.90;;;;;;;2.52;62.21;98760.59;4932108;29;20051;-80
2023/03/15 05:54:35;;;;;;;0.88;0.88;;;;;;;2.53;62.10;98771.06;4930671;29;20103;-81
2023/03/15 05:57:31;;;;;;;1.00;1.00;;;;;;;2.53;62.37;98771.06;4824752;29;20073;-80
2023/03/15 06:00:30;;;;;;;0.90;0.90;;;;;;;2.69;61.89;98782.41;4839190;29;20521;-81
2023/03/15 06:03:05;;;;;;;0.80;0.80;;;;;;;2.81;61.36;98767.44;4835213;29;20060;-81
2023/03/15 06:05:46;;;;;;;0.90;0.90;;;;;;;2.90;60.89;98776.94;4843430;29;20057;-81
2023/03/15 06:08:18;;;;;;;0.95;0.95;;;;;;;3.04;60.76;98765.28;4846746;29;20053;-81
2023/03/15 06:10:48;;;;;;;0.93;0.93;;;;;;;3.13;60.48;98781.09;4872492;29;20728;-84
2023/03/15 06:13:16;;;;;;;0.90;0.90;;;;;;;3.16;60.47;98770.81;4877497;29;20054;-84
2023/03/15 06:15:47;;;;;;;0.90;0.90;;;;;;;3.34;60.13;98756.09;4841235;29;20088;-82
2023/03/15 06:18:17;;;;;;;0.90;0.90;;;;;;;3.42;59.70;98770.06;4850837;29;20064;-81
2023/03/15 06:20:47;;;;;;;0.90;0.90;;;;;;;3.45;59.64;98796.31;4854920;29;20646;-81
2023/03/15 06:23:14;;;;;;;0.90;0.90;;;;;;;3.48;59.45;98753.22;4854740;29;20049;-82
2023/03/15 06:25:45;;;;;;;0.82;0.82;;;;;;;3.54;59.59;98814.81;4899090;29;20103;-82
2023/03/15 06:28:13;;;;;;;0.90;0.90;;;;;;;3.61;59.16;98783.59;4917291;29;20066;-81
2023/03/15 06:30:50;;;;;;;0.85;0.85;;;;;;;3.68;59.08;98789.78;4903792;29;20048;-82
2023/03/15 06:33:23;;;;;;;0.90;0.90;;;;;;;3.74;58.90;98772.94;4901673;28;20044;-81
2023/03/15 06:35:54;;;;;;;0.90;0.90;;;;;;;3.80;58.73;98779.28;4976915;28;20039;-81
2023/03/15 06:38:21;;;;;;;0.80;0.80;;;;;;;3.66;58.88;98784.63;4973381;28;20050;-82
2023/03/15 06:40:48;;;;;;;0.80;0.80;;;;;;;3.44;59.43;98770.69;4983909;28;20188;-81
2023/03/15 06:43:18;;;;;;;0.90;0.90;;;;;;;3.60;59.61;98787.31;5002275;28;20093;-84
2023/03/15 06:45:46;;;;;;;0.85;0.85;;;;;;;3.66;59.29;98763.28;4988977;28;20103;-81
2023/03/15 06:48:15;;;;;;;1.00;1.00;;;;;;;3.93;58.83;98789.16;4975068;28;20053;-81
2023/03/15 06:50:42;;;;;;;0.88;0.88;;;;;;;4.01;58.39;98803.09;4979884;28;20668;-80
2023/03/15 06:53:14;;;;;;;0.90;0.90;;;;;;;4.31;57.96;98783.97;4993960;28;20045;-84
2023/03/15 06:55:41;;;;;;;0.90;0.90;;;;;;;4.36;57.39;98773.47;5002762;28;20118;-82
2023/03/15 06:58:09;;;;;;;0.90;0.90;;;;;;;4.36;57.79;98802.03;5016101;28;20085;-80
2023/03/15 07:00:36;;;;;;;0.90;0.90;;;;;;;4.24;57.78;98802.66;5001828;28;20128;-78
2023/03/15 07:03:04;;;;;;;0.90;0.90;;;;;;;4.21;58.28;98789.72;5013871;28;20107;-80
2023/03/15 07:05:31;;;;;;;0.90;0.90;;;;;;;4.06;58.27;98781.13;4986695;28;20054;-81
2023/03/15 07:07:58;;;;;;;0.90;0.90;;;;;;;4.18;58.03;98779.47;5001574;28;20046;-78
2023/03/15 07:10:25;;;;;;;0.80;0.80;;;;;;;4.29;58.11;98769.97;4988893;28;20121;-79
2023/03/15 07:12:52;;;;;;;0.90;0.90;;;;;;;4.44;57.71;98791.94;4999321;28;20042;-79
2023/03/15 07:15:20;;;;;;;0.80;0.80;;;;;;;4.47;57.55;98801.38;4995753;28;20054;-80
2023/03/15 07:17:47;;;;;;;0.88;0.88;;;;;;;4.43;57.70;98802.81;5009205;28;20132;-80
2023/03/15 07:20:14;;;;;;;0.80;0.80;;;;;;;4.40;58.04;98790.69;4998207;28;20050;-83
2023/03/15 07:22:44;;;;;;;0.90;0.90;;;;;;;4.44;57.85;98807.97;4997953;28;20049;-81
2023/03/15 07:25:11;;;;;;;0.90;0.90;;;;;;;4.63;57.47;98816.94;5002094;28;20045;-81
2023/03/15 07:27:38;;;;;;;1.10;1.10;;;;;;;5.00;56.99;98802.00;4989860;28;20568;-81
2023/03/15 07:30:08;;;;;;;0.90;0.90;;;;;;;5.32;56.12;98798.53;4997992;28;20046;-80
2023/03/15 07:32:41;;;;;;;1.00;1.00;;;;;;;5.60;55.53;98803.50;5005683;28;20050;-81
2023/03/15 07:35:08;;;;;;;0.90;0.90;;;;;;;5.76;54.82;98770.81;4986263;28;20595;-80
2023/03/15 07:37:39;;;;;;;1.00;1.00;;;;;;;5.99;54.29;98775.59;4994110;28;20050;-81
2023/03/15 07:40:11;;;;;;;1.00;1.00;;;;;;;6.24;53.52;98793.50;4981502;28;20088;-83
2023/03/15 07:42:42;;;;;;;0.90;0.90;;;;;;;6.12;53.38;98803.31;4992723;28;20141;-83
2023/03/15 07:45:09;;;;;;;0.90;0.90;;;;;;;6.12;53.63;98819.38;4995034;28;20172;-84
2023/03/15 07:47:36;;;;;;;0.90;0.90;;;;;;;6.12;53.11;98832.78;4985550;28;20150;-83
2023/03/15 07:50:05;;;;;;;0.90;0.90;;;;;;;6.11;53.46;98825.78;4975993;28;20053;-83
2023/03/15 07:52:32;;;;;;;0.90;0.90;;;;;;;6.09;53.21;98826.00;4992956;28;20050;-83
2023/03/15 07:54:59;;;;;;;0.90;0.90;;;;;;;6.17;53.26;98824.91;4988416;28;20050;-82
2023/03/15 07:57:28;;;;;;;0.90;0.90;;;;;;;6.24;52.85;98814.94;4983693;28;20050;-82
2023/03/15 07:59:55;;;;;;;0.90;0.90;;;;;;;6.49;52.92;98839.84;4995770;28;20140;-81
2023/03/15 08:02:22;;;;;;;0.90;0.90;;;;;;;6.72;52.17;98839.19;4983106;28;20106;-80
2023/03/15 08:04:50;;;;;;;0.90;0.90;;;;;;;6.62;51.93;98835.38;4998166;28;20054;-82
2023/03/15 08:07:17;;;;;;;0.90;0.90;;;;;;;6.38;52.71;98837.06;4994936;28;20061;-82
2023/03/15 08:09:45;;;;;;;0.90;0.90;;;;;;;6.36;53.09;98865.97;4988408;28;20062;-82
2023/03/15 08:12:12;;;;;;;0.90;0.90;;;;;;;6.37;53.06;98830.88;4968543;28;20109;-81
2023/03/15 08:14:40;;;;;;;0.90;0.90;;;;;;;6.60;52.51;98829.41;4985771;28;20188;-82
2023/03/15 08:17:11;;;;;;;0.90;0.90;;;;;;;6.55;52.79;98838.13;4985086;28;20069;-80
2023/03/15 08:19:39;;;;;;;0.90;0.90;;;;;;;6.80;52.35;98859.53;4993022;28;20051;-78
2023/03/15 08:22:07;;;;;;;0.90;0.90;;;;;;;6.81;52.33;98837.03;4994012;28;20046;-80
2023/03/15 08:24:38;;;;;;;0.90;0.90;;;;;;;6.62;53.13;98846.09;4999875;28;20047;-80
2023/03/15 08:27:05;;;;;;;0.90;0.90;;;;;;;6.66;52.83;98842.75;4986534;28;20046;-80
2023/03/15 08:29:32;;;;;;;0.90;0.90;;;;;;;6.64;52.66;98809.97;4986575;28;20137;-80
2023/03/15 08:32:00;;;;;;;0.90;0.90;;;;;;;6.45;53.17;98811.00;4996437;28;20104;-80
2023/03/15 08:34:27;;;;;;;0.90;0.90;;;;;;;6.34;53.74;98842.06;5004537;28;20050;-79
2023/03/15 08:37:03;;;;;;;0.90;0.90;;;;;;;6.27;53.88;98826.03;4986905;28;20421;-80
2023/03/15 08:39:30;;;;;;;0.88;0.88;;;;;;;6.07;54.49;98834.25;4988118;28;20097;-78
2023/03/15 08:42:06;;;;;;;0.80;0.80;;;;;;;5.87;55.14;98817.50;4995684;28;20574;-81
2023/03/15 08:45:11;;;;;;;0.80;0.80;;;;;;;5.65;55.74;98828.59;4953779;28;20059;-83
2023/03/15 08:47:38;;;;;;;0.90;0.90;;;;;;;5.76;56.00;98839.63;4969849;28;20088;-81
2023/03/15 08:50:08;;;;;;;0.80;0.80;;;;;;;5.80;55.52;98819.41;4988375;28;20141;-79
2023/03/15 08:52:35;;;;;;;0.90;0.90;;;;;;;5.73;55.94;98818.66;4983890;28;20045;-80
2023/03/15 08:55:03;;;;;;;0.80;0.80;;;;;;;5.67;56.16;98825.66;4970711;28;20042;-79
2023/03/15 08:57:32;;;;;;;0.70;0.70;;;;;;;5.65;56.43;98844.66;4984164;28;20505;-82
2023/03/15 09:00:00;;;;;;;0.80;0.80;;;;;;;5.82;56.29;98839.59;4961844;28;20054;-80
2023/03/15 09:02:29;;;;;;;0.80;0.80;;;;;;;5.95;56.20;98846.72;4985222;28;20096;-83
2023/03/15 09:04:56;;;;;;;0.80;0.80;;;;;;;5.97;55.92;98830.44;4986201;28;20049;-82
2023/03/15 09:07:23;;;;;;;0.80;0.80;;;;;;;5.86;56.03;98814.00;4983851;28;20077;-81
2023/03/15 09:09:53;;;;;;;0.88;0.88;;;;;;;5.83;56.37;98816.31;4984157;28;20062;-83
2023/03/15 09:12:20;;;;;;;0.80;0.80;;;;;;;6.00;56.18;98836.19;4997225;28;20100;-81
2023/03/15 09:14:47;;;;;;;0.80;0.80;;;;;;;6.05;56.42;98833.66;4969805;28;20480;-83
2023/03/15 09:17:14;;;;;;;0.90;0.90;;;;;;;6.06;56.17;98810.38;4993422;28;20049;-80
2023/03/15 09:19:42;;;;;;;0.80;0.80;;;;;;;6.14;56.29;98828.03;5000780;28;20050;-82
2023/03/15 09:22:11;;;;;;;0.80;0.80;;;;;;;6.22;56.03;98839.25;4980367;28;20055;-81
2023/03/15 09:24:51;;;;;;;0.80;0.80;;;;;;;6.15;56.00;98843.03;4988362;28;20049;-80
2023/03/15 09:27:18;;;;;;;0.80;0.80;;;;;;;6.15;56.31;98832.31;4990346;28;20082;-82
2023/03/15 09:29:45;;;;;;;0.80;0.80;;;;;;;6.32;55.63;98825.38;4990777;28;20058;-80
2023/03/15 09:32:12;;;;;;;0.88;0.88;;;;;;;6.44;55.56;98831.63;4996042;28;20081;-81
2023/03/15 09:34:40;;;;;;;0.80;0.80;;;;;;;6.52;55.42;98835.91;4995645;28;20069;-80
2023/03/15 09:37:08;;;;;;;0.80;0.80;;;;;;;6.66;55.16;98826.69;5003194;28;20058;-80
2023/03/15 09:39:35;;;;;;;0.90;0.90;;;;;;;6.90;55.05;98835.66;4988526;28;20053;-80
2023/03/15 09:42:05;;;;;;;0.90;0.90;;;;;;;7.16;54.36;98815.75;4987369;28;20113;-82
2023/03/15 09:44:41;;;;;;;0.90;0.90;;;;;;;7.45;53.53;98836.63;4993491;28;20058;-80
2023/03/15 09:47:11;;;;;;;0.80;0.80;;;;;;;7.30;53.41;98835.16;5007121;28;20049;-81
2023/03/15 09:49:41;;;;;;;0.80;0.80;;;;;;;7.30;53.73;98826.31;4960164;28;20081;-80
2023/03/15 09:52:11;;;;;;;0.80;0.80;;;;;;;7.33;53.55;98829.34;4996547;28;20455;-80
2023/03/15 09:54:45;;;;;;;0.80;0.80;;;;;;;7.22;53.76;98811.34;4992692;28;20149;-81
2023/03/15 09:57:45;;;;;;;0.90;0.90;;;;;;;7.20;53.95;98823.34;4995609;28;20076;-80
2023/03/15 10:00:15;;;;;;;0.80;0.80;;;;;;;7.35;53.71;98823.75;4991520;28;20600;-79
2023/03/15 10:02:49;;;;;;;0.80;0.80;;;;;;;7.54;53.19;98819.13;4977485;28;20085;-80
2023/03/15 10:05:23;;;;;;;0.80;0.80;;;;;;;7.58;53.04;98778.16;4982976;28;20050;-81
2023/03/15 10:07:50;;;;;;;0.90;0.90;;;;;;;7.87;52.47;98815.13;4971548;28;20460;-80
2023/03/15 10:10:21;;;;;;;0.90;0.90;;;;;;;8.20;51.57;98818.09;4988263;28;20054;-80
2023/03/15 10:12:57;;;;;;;0.80;0.80;;;;;;;8.13;51.47;98812.00;4976785;28;20084;-81
2023/03/15 10:15:47;;;;;;;0.90;0.90;;;;;;;8.53;50.65;98781.72;4999509;28;20648;-81
2023/03/15 10:18:29;;;;;;;0.90;0.90;;;;;;;8.71;50.19;98796.06;4958876;28;20149;-80
2023/03/15 10:21:05;;;;;;;1.00;1.00;;;;;;;9.31;48.90;98779.47;4964332;28;20098;-80
2023/03/15 10:23:56;;;;;;;1.10;1.10;;;;;;;10.11;47.52;98801.84;4622763;28;9999760;-80
2023/03/15 10:26:28;;;;;;;0.90;0.90;;;;;;;9.94;46.90;98794.56;4990270;28;20046;-77
2023/03/15 10:28:55;;;;;;;0.80;0.80;;;;;;;9.27;48.39;98789.94;4971188;28;20133;-80
2023/03/15 10:31:26;;;;;;;0.70;0.70;;;;;;;8.59;50.01;98809.56;4987470;28;20105;-79
2023/03/15 10:34:12;;;;;;;0.70;0.70;;;;;;;8.12;51.30;98807.66;4977791;28;20056;-79
2023/03/15 10:36:46;;;;;;;0.80;0.80;;;;;;;8.06;51.42;98818.53;4971027;28;20402;-81
2023/03/15 10:39:15;;;;;;;0.90;0.90;;;;;;;7.95;51.79;98822.84;4981885;28;20082;-78
2023/03/15 10:41:44;;;;;;;0.90;0.90;;;;;;;8.64;50.55;98833.88;4986465;28;20062;-80
2023/03/15 10:44:24;;;;;;;0.90;0.90;;;;;;;9.44;49.07;98829.53;4987942;28;20137;-80
2023/03/15 10:47:12;;;;;;;0.90;0.90;;;;;;;10.02;47.25;98830.25;4992024;28;20057;-80
2023/03/15 10:49:55;;;;;;;0.90;0.90;;;;;;;10.28;47.03;98818.88;4986231;28;20157;-80
2023/03/15 10:52:38;;;;;;;0.80;0.80;;;;;;;10.22;46.97;98795.53;4975234;28;20050;-81
2023/03/15 10:55:06;;;;;;;0.90;0.90;;;;;;;9.92;47.08;98815.53;4995140;28;20049;-78
2023/03/15 10:57:38;;;;;;;1.00;1.00;;;;;;;10.57;45.96;98805.22;5002301;28;20826;-81
2023/03/15 11:00:26;;;;;;;1.00;1.00;;;;;;;11.43;44.31;98810.03;4999486;28;20045;-81
2023/03/15 11:03:04;;;;;;;0.90;0.90;;;;;;;11.15;44.65;98819.19;4979730;28;20097;-79
2023/03/15 11:05:39;;;;;;;0.90;0.90;;;;;;;11.04;44.74;98829.88;4989685;28;20061;-81
2023/03/15 11:08:13;;;;;;;0.80;0.80;;;;;;;10.48;45.92;98823.75;4990921;28;20707;-80
2023/03/15 11:10:41;;;;;;;0.88;0.88;;;;;;;10.12;46.64;98822.34;4988225;28;20197;-79
2023/03/15 11:13:20;;;;;;;0.75;0.75;;;;;;;9.94;47.35;98826.91;5000989;28;20050;-79
2023/03/15 11:16:11;;;;;;;0.70;0.70;;;;;;;9.51;47.80;98817.56;4995803;28;20046;-80
2023/03/15 11:18:53;;;;;;;0.90;0.90;;;;;;;9.48;48.27;98807.25;4990089;28;20046;-79
2023/03/15 11:21:24;;;;;;;0.80;0.80;;;;;;;9.72;47.91;98807.13;4997084;28;20042;-80
2023/03/15 11:23:53;;;;;;;0.80;0.80;;;;;;;9.73;47.89;98806.09;4999392;28;20050;-79
2023/03/15 11:26:23;;;;;;;0.90;0.90;;;;;;;9.69;47.92;98813.81;4994770;28;20046;-80
2023/03/15 11:29:20;;;;;;;0.90;0.90;;;;;;;10.03;47.74;98810.34;4997643;28;20113;-79
2023/03/15 11:31:49;;;;;;;0.88;0.88;;;;;;;10.14;46.95;98804.84;5007969;28;20104;-80
2023/03/15 11:34:44;;;;;;;0.80;0.80;;;;;;;10.17;47.17;98800.84;4986341;28;20161;-79
2023/03/15 11:37:19;;;;;;;0.80;0.80;;;;;;;9.95;47.46;98822.31;4991903;28;20053;-79
2023/03/15 11:39:52;;;;;;;0.90;0.90;;;;;;;9.74;47.92;98826.56;4968672;28;20144;-78
2023/03/15 11:42:33;;;;;;;0.80;0.80;;;;;;;9.71;48.08;98802.81;4989634;28;20074;-80
2023/03/15 11:45:19;;;;;;;0.70;0.70;;;;;;;9.51;48.14;98822.94;4996361;28;20074;-80
2023/03/15 11:47:55;;;;;;;0.90;0.90;;;;;;;9.40;48.44;98809.53;4994651;28;20042;-80
2023/03/15 11:50:22;;;;;;;0.70;0.70;;;;;;;9.33;48.59;98799.72;5006499;28;20045;-80
2023/03/15 11:52:50;;;;;;;0.80;0.80;;;;;;;8.97;49.54;98806.31;4987482;28;20050;-79
2023/03/15 11:55:26;;;;;;;0.90;0.90;;;;;;;8.96;49.51;98795.78;4990852;28;20054;-79
2023/03/15 11:57:56;;;;;;;0.80;0.80;;;;;;;8.67;49.90;98818.06;4996886;28;20046;-79
2023/03/15 12:00:30;;;;;;;0.80;0.80;;;;;;;8.59;50.51;98833.75;4989996;28;20118;-80
2023/03/15 12:03:00;;;;;;;;;;;;;;;8.36;50.96;98789.66;4996718;28;20058;-79
2023/03/15 12:05:50;;;;;;;0.80;0.80;;;;;;;8.33;51.35;98822.41;4993804;28;20394;-79
2023/03/15 12:08:21;;;;;;;0.95;0.95;;;;;;;8.46;51.01;98789.13;4986756;28;20109;-80
2023/03/15 12:10:49;;;;;;;0.90;0.90;;;;;;;8.89;50.08;98825.53;4994756;28;20055;-80